WetterOnline ( https://www.wetteronline.de )

Wetter aktuell Neumühle

Aktuelles Wetter: Feuchtwangen-Heilbronn (475m)

6-stündlich | Neueste Meldungen
Ortszeit Temperatur Wetter
Fr, 03.04. 20:00 7.3° C bewölkt
Fr, 03.04. 14:00 9.8° C bewölkt
Fr, 03.04. 8:00 -0.0° C wolkenlos
Fr, 03.04. 2:00 1.1° C fast wolkenlos
Do, 02.04. 20:00 8.0° C wolkenlos
Do, 02.04. 14:00 10.9° C wolkenlos
Do, 02.04. 8:00 -3.0° C wolkenlos
Do, 02.04. 2:00 -3.5° C wolkenlos
Ortszeit Temperatur Wetter
Fr, 03.04. 23:30 4.3° C bedeckt
Fr, 03.04. 23:20 4.3° C bedeckt
Fr, 03.04. 23:10 4.6° C bedeckt
Fr, 03.04. 23:00 5.5° C bedeckt
Fr, 03.04. 22:50 5.5° C bedeckt
Fr, 03.04. 22:40 5.5° C bedeckt
Fr, 03.04. 22:30 5.4° C bedeckt
Fr, 03.04. 22:00 5.6° C bewölkt
Ortszeit Relative Feuchte Sichtweite
Fr, 03.04. 20:00 62% 35 km
Fr, 03.04. 14:00 49% 55 km
Fr, 03.04. 8:00 78% 14 km
Fr, 03.04. 2:00 63% 35 km
Do, 02.04. 20:00 37% 35 km
Do, 02.04. 14:00 36% 35 km
Do, 02.04. 8:00 69% 30 km
Do, 02.04. 2:00 77% 35 km
Ortszeit Relative Feuchte Sichtweite
Fr, 03.04. 23:30 80% 28 km
Fr, 03.04. 23:20 80% -
Fr, 03.04. 23:10 80% -
Fr, 03.04. 23:00 74% 30 km
Fr, 03.04. 22:50 74% -
Fr, 03.04. 22:40 74% -
Fr, 03.04. 22:30 75% 30 km
Fr, 03.04. 22:00 73% 30 km
Ortszeit Niederschlagsmenge Niederschlagsart
Fr, 03.04. 20:00 0.0 l/m2 in 12 Std. -
Fr, 03.04. 14:00 0.0 l/m2 in 6 Std. -
Fr, 03.04. 8:00 0.0 l/m2 in 12 Std. -
Fr, 03.04. 2:00 0.0 l/m2 in 6 Std. -
Do, 02.04. 20:00 0.0 l/m2 in 12 Std. -
Do, 02.04. 14:00 0.0 l/m2 in 6 Std. -
Do, 02.04. 8:00 0.0 l/m2 in 12 Std. -
Do, 02.04. 2:00 0.0 l/m2 in 6 Std. -
Ortszeit Niederschlagsmenge Niederschlagsart
Fr, 03.04. 23:30 0.0 l/m2 in 1 Std. -
Fr, 03.04. 23:20 keine Meldung -
Fr, 03.04. 23:10 keine Meldung -
Fr, 03.04. 23:00 0.0 l/m2 in 1 Std. -
Fr, 03.04. 22:50 keine Meldung -
Fr, 03.04. 22:40 keine Meldung -
Fr, 03.04. 22:30 0.0 l/m2 in 1 Std. -
Fr, 03.04. 22:00 0.0 l/m2 in 1 Std. -
Ortszeit Stärke Spitze Richtung
km/h Bft. km/h Grad Sektor
Fr, 03.04. 20:00 7 2 36 300° NW
Fr, 03.04. 14:00 17 3 31 300° NW
Fr, 03.04. 8:00 7 2 11 210° SW
Fr, 03.04. 2:00 4 1 18 280° W
Do, 02.04. 20:00 13 3 31 280° W
Do, 02.04. 14:00 15 3 28 300° NW
Do, 02.04. 8:00 2 1 4 290° W
Do, 02.04. 2:00 0 0 7 - -
Ortszeit Stärke Spitze Richtung
km/h Bft. km/h Grad Sektor
Fr, 03.04. 23:30 4 1 4 210° SW
Fr, 03.04. 23:20 4 1 - 210° SW
Fr, 03.04. 23:10 2 1 - 160° S
Fr, 03.04. 23:00 4 1 4 170° S
Fr, 03.04. 22:50 4 1 - 170° S
Fr, 03.04. 22:40 4 1 - 140° SO
Fr, 03.04. 22:30 4 1 4 180° S
Fr, 03.04. 22:00 4 1 7 170° S
Ortszeit Untergrenze Bedeckung Gattung
total tief tief mittel hoch
Fr, 03.04. 20:00 1800 m 7/8 7/8 - - -
Fr, 03.04. 14:00 1320 m 7/8 7/8 - - -
Fr, 03.04. 8:00 - 0/8 0/8 - - -
Fr, 03.04. 2:00 8400 m 2/8 0/8 - - -
Do, 02.04. 20:00 - 0/8 0/8 - - -
Do, 02.04. 14:00 - 0/8 0/8 - - -
Do, 02.04. 8:00 - 0/8 0/8 - - -
Do, 02.04. 2:00 - 0/8 0/8 - - -
Ortszeit Bedeckungsgrad in Achtel und Wolkenuntergrenze
Fr, 03.04. 23:30 8(1800m)
Fr, 03.04. 23:20 8(1800m)
Fr, 03.04. 23:10 8(1800m)
Fr, 03.04. 23:00 8(1800m)
Fr, 03.04. 22:50 8(1800m)
Fr, 03.04. 22:40 8(1800m)
Fr, 03.04. 22:30 8(1800m)
Fr, 03.04. 22:00 7(1800m)
Ortszeit Luftdruck NN (hPa) Tendenz (hPa in 3 Std.)
Fr, 03.04. 20:00 1019 + 1,3
Fr, 03.04. 14:00 1016 + 0,3
Fr, 03.04. 8:00 1017 + 1,5
Fr, 03.04. 2:00 1014 + 0,9
Do, 02.04. 20:00 1011 0,0
Do, 02.04. 14:00 1012 - 1,4
Do, 02.04. 8:00 1017 - 0,1
Do, 02.04. 2:00 1018 - 1,1
Ortszeit Luftdruck NN (hPa) Tendenz (hPa in 3 Std.)
Fr, 03.04. 23:30 1021 + 1,6
Fr, 03.04. 23:20 1021 keine Meldung
Fr, 03.04. 23:10 1021 keine Meldung
Fr, 03.04. 23:00 1021 + 1,8
Fr, 03.04. 22:50 1021 keine Meldung
Fr, 03.04. 22:40 1021 keine Meldung
Fr, 03.04. 22:30 1021 + 2,0
Fr, 03.04. 22:00 1020 + 2,0
Ortszeit Schneehöhe (cm)
Fr, 03.04. 20:00 0
Fr, 03.04. 14:00 0
Fr, 03.04. 8:00 0
Fr, 03.04. 2:00 0
Do, 02.04. 20:00 0
Do, 02.04. 14:00 0
Do, 02.04. 8:00 0
Do, 02.04. 2:00 0
Ortszeit Schneehöhe (cm)
Fr, 03.04. 23:30 0
Fr, 03.04. 23:20 0
Fr, 03.04. 23:10 0
Fr, 03.04. 23:00 0
Fr, 03.04. 22:50 0
Fr, 03.04. 22:40 0
Fr, 03.04. 22:30 0
Fr, 03.04. 22:00 0
Link zu dieser Seite / Seite empfehlen

Das Wetter in ...